Time;durP1;ratioP1;P1;durP2;ratioP2;P2;SDS_P1;SDS_P2;PMS_P1;PMS_P2;Temp;Humidity;BMP_temperature;BMP_pressure;BME280_temperature;BME280_humidity;BME280_pressure;Samples;Min_cycle;Max_cycle;Signal;HPM_P1;HPM_P2
2021/01/05 00:01:08;;;;;;;3.78;1.10;;;10.40;99.90;;;;;;5095214;28;20222;-34
2021/01/05 00:03:38;;;;;;;1.42;0.80;;;10.30;99.90;;;;;;5102607;28;20251;-34
2021/01/05 00:06:08;;;;;;;3.00;1.20;;;10.30;99.90;;;;;;5109070;28;20254;-34
2021/01/05 00:08:38;;;;;;;3.90;1.10;;;10.30;99.90;;;;;;5096530;28;20193;-37
2021/01/05 00:11:08;;;;;;;4.10;1.00;;;10.40;99.90;;;;;;5107536;28;20196;-35
2021/01/05 00:13:38;;;;;;;2.63;0.90;;;10.50;99.90;;;;;;5091577;28;20300;-34
2021/01/05 00:16:10;;;;;;;2.35;1.50;;;10.30;99.90;;;;;;5101936;28;20260;-31
2021/01/05 00:18:40;;;;;;;2.17;1.10;;;10.20;99.90;;;;;;5110923;28;20201;-36
2021/01/05 00:21:10;;;;;;;1.75;1.20;;;10.20;99.90;;;;;;5095329;28;20201;-31
2021/01/05 00:23:40;;;;;;;2.78;0.80;;;10.20;99.90;;;;;;5112229;28;20282;-39
2021/01/05 00:26:10;;;;;;;2.38;0.90;;;10.20;99.90;;;;;;5109301;28;20240;-37
2021/01/05 00:28:42;;;;;;;2.45;1.08;;;10.20;99.90;;;;;;5111271;27;20197;-36
2021/01/05 00:31:13;;;;;;;4.65;1.42;;;10.10;99.90;;;;;;5107577;28;20190;-33
2021/01/05 00:33:43;;;;;;;4.00;1.45;;;10.00;99.90;;;;;;5091837;28;20193;-31
2021/01/05 00:36:13;;;;;;;2.65;1.33;;;9.90;99.90;;;;;;5101173;28;20330;-34
2021/01/05 00:38:43;;;;;;;2.58;1.40;;;9.90;99.90;;;;;;5098053;28;20197;-35
2021/01/05 00:41:13;;;;;;;4.47;1.90;;;9.90;99.90;;;;;;5096410;28;20239;-34
2021/01/05 00:43:43;;;;;;;2.30;1.55;;;9.90;99.90;;;;;;5107049;28;20256;-37
2021/01/05 00:46:15;;;;;;;2.88;2.08;;;10.00;99.90;;;;;;5091380;28;20254;-34
2021/01/05 00:48:45;;;;;;;6.45;2.20;;;9.80;99.90;;;;;;5107398;28;20188;-34
2021/01/05 00:51:16;;;;;;;3.85;2.00;;;9.80;99.90;;;;;;5110627;28;20200;-34
2021/01/05 00:53:46;;;;;;;3.53;1.95;;;9.70;99.90;;;;;;5104197;28;20278;-36
2021/01/05 00:56:16;;;;;;;3.55;1.40;;;9.70;99.90;;;;;;5096434;28;20258;-34
2021/01/05 00:58:46;;;;;;;3.58;1.55;;;9.70;99.90;;;;;;5108417;27;20674;-38
2021/01/05 01:01:19;;;;;;;2.78;1.52;;;9.60;99.90;;;;;;5106150;27;20214;-35
2021/01/05 01:03:50;;;;;;;6.38;2.08;;;9.60;99.90;;;;;;5112803;27;20212;-36
2021/01/05 01:06:20;;;;;;;5.38;1.75;;;9.60;99.90;;;;;;5105483;28;20210;-31
2021/01/05 01:08:51;;;;;;;3.08;1.20;;;9.70;99.90;;;;;;5104352;28;20189;-37
2021/01/05 01:11:23;;;;;;;5.78;1.95;;;9.60;99.90;;;;;;5096820;27;20630;-35
2021/01/05 01:13:53;;;;;;;3.38;1.85;;;9.60;99.90;;;;;;5106459;27;20608;-32
2021/01/05 01:16:25;;;;;;;3.67;1.85;;;9.60;99.90;;;;;;5090577;28;20552;-36
2021/01/05 01:18:55;;;;;;;4.22;2.22;;;9.50;99.90;;;;;;5104353;28;20249;-34
2021/01/05 01:21:25;;;;;;;4.45;2.13;;;9.50;99.90;;;;;;5103671;28;20202;-37
2021/01/05 01:23:55;;;;;;;6.70;2.17;;;9.50;99.90;;;;;;5100038;28;20231;-38
2021/01/05 01:26:25;;;;;;;4.20;2.22;;;9.50;99.90;;;;;;5098580;28;20236;-37
2021/01/05 01:28:55;;;;;;;3.80;2.17;;;9.50;99.90;;;;;;5093677;27;20200;-38
2021/01/05 01:31:28;;;;;;;6.43;2.38;;;9.60;99.90;;;;;;5089816;28;20197;-36
2021/01/05 01:33:58;;;;;;;6.43;1.90;;;9.50;99.90;;;;;;5090920;28;20207;-33
2021/01/05 01:36:28;;;;;;;4.18;2.10;;;9.50;99.90;;;;;;5108543;28;20202;-36
2021/01/05 01:38:59;;;;;;;3.17;2.00;;;9.40;99.90;;;;;;5105278;28;20197;-36
2021/01/05 01:41:29;;;;;;;3.15;1.20;;;9.50;99.90;;;;;;5109472;28;20239;-37
2021/01/05 01:44:00;;;;;;;3.17;1.30;;;9.50;99.90;;;;;;5110964;28;20240;-35
2021/01/05 01:46:35;;;;;;;2.72;1.50;;;9.40;99.90;;;;;;5097836;28;20305;-31
2021/01/05 01:49:05;;;;;;;3.65;1.70;;;9.40;99.90;;;;;;5102364;27;20188;-37
2021/01/05 01:51:35;;;;;;;3.63;1.55;;;9.40;99.90;;;;;;5095803;28;20192;-34
2021/01/05 01:54:26;;;;;;;2.60;1.58;;;9.30;99.90;;;;;;5104721;28;20193;-33
2021/01/05 01:57:28;;;;;;;3.75;1.63;;;9.30;99.90;;;;;;5093554;28;20272;-30
2021/01/05 02:00:19;;;;;;;3.92;1.65;;;9.20;99.90;;;;;;5096377;28;20656;-38
2021/01/05 02:03:16;;;;;;;3.78;1.67;;;9.30;99.90;;;;;;5088881;28;20273;-34
2021/01/05 02:06:02;;;;;;;6.70;5.70;;;9.30;99.90;;;;;;5098337;28;20195;-33
2021/01/05 02:08:41;;;;;;;19.38;13.55;;;9.40;99.90;;;;;;5089624;28;20218;-36
2021/01/05 02:11:20;;;;;;;6.63;4.13;;;9.40;99.90;;;;;;5089603;28;20644;-33
2021/01/05 02:14:11;;;;;;;4.80;3.10;;;9.40;99.90;;;;;;5090060;28;20201;-33
2021/01/05 02:17:01;;;;;;;3.85;2.65;;;9.30;99.90;;;;;;5097076;28;20188;-36
2021/01/05 02:19:36;;;;;;;6.05;3.55;;;9.30;99.90;;;;;;5091033;28;20595;-37
2021/01/05 02:22:18;;;;;;;3.97;3.55;;;9.20;99.90;;;;;;5094622;28;20196;-37
2021/01/05 02:24:59;;;;;;;3.58;2.45;;;9.10;99.90;;;;;;5098550;28;20625;-34
2021/01/05 02:27:31;;;;;;;3.20;2.88;;;9.10;99.90;;;;;;5095191;28;20752;-37
2021/01/05 02:30:06;;;;;;;3.33;1.70;;;9.10;99.90;;;;;;5088890;28;20189;-34
2021/01/05 02:32:43;;;;;;;4.07;1.98;;;8.90;99.90;;;;;;5096777;28;20248;-33
2021/01/05 02:35:30;;;;;;;4.15;1.85;;;8.90;99.90;;;;;;5089551;28;20242;-35
2021/01/05 02:38:12;;;;;;;4.90;2.00;;;8.90;99.90;;;;;;5089732;28;20272;-34
2021/01/05 02:40:59;;;;;;;5.32;2.55;;;8.90;99.90;;;;;;5089226;28;20224;-34
2021/01/05 02:43:59;;;;;;;2.30;2.00;;;8.80;99.90;;;;;;5089398;28;20679;-37
2021/01/05 02:46:50;;;;;;;3.22;1.67;;;8.80;99.90;;;;;;5089105;28;20201;-35
2021/01/05 02:49:40;;;;;;;5.05;2.00;;;8.80;99.90;;;;;;5100910;28;20223;-32
2021/01/05 02:52:58;;;;;;;6.00;2.65;;;8.70;99.90;;;;;;5090059;28;20192;-38
2021/01/05 02:56:08;;;;;;;4.90;2.70;;;8.70;99.90;;;;;;5091868;28;20205;-31
2021/01/05 02:59:06;;;;;;;3.28;2.90;;;8.60;99.90;;;;;;5056709;28;20695;-36
2021/01/05 03:02:27;;;;;;;4.95;3.35;;;8.70;99.90;;;;;;5100841;28;20188;-33
2021/01/05 03:04:57;;;;;;;5.82;3.15;;;8.50;99.90;;;;;;5007892;28;20282;-36
2021/01/05 03:07:29;;;;;;;3.38;2.90;;;8.50;99.90;;;;;;5086256;28;20197;-33
2021/01/05 03:10:11;;;;;;;7.00;3.58;;;8.50;99.90;;;;;;5101276;28;20196;-34
2021/01/05 03:13:23;;;;;;;3.95;2.50;;;8.50;99.90;;;;;;5106570;28;20284;-34
2021/01/05 03:15:59;;;;;;;6.13;3.00;;;8.50;99.90;;;;;;5095425;28;20189;-31
2021/01/05 03:18:38;;;;;;;4.85;3.00;;;8.40;99.90;;;;;;5104870;28;20507;-35
2021/01/05 03:21:17;;;;;;;4.20;2.80;;;8.40;99.90;;;;;;5089350;28;20188;-38
2021/01/05 03:23:49;;;;;;;5.85;3.10;;;8.30;99.90;;;;;;5097715;28;20212;-35
2021/01/05 03:26:23;;;;;;;2.92;2.42;;;8.20;99.90;;;;;;5102095;28;20220;-36
2021/01/05 03:28:53;;;;;;;2.88;2.67;;;8.20;99.90;;;;;;5107475;28;20267;-35
2021/01/05 03:31:28;;;;;;;5.45;3.20;;;8.20;99.90;;;;;;5103052;28;20211;-35
2021/01/05 03:34:02;;;;;;;4.30;3.40;;;8.30;99.90;;;;;;5119741;28;20183;-36
2021/01/05 03:36:32;;;;;;;3.50;2.30;;;8.30;99.90;;;;;;5108292;28;20230;-36
2021/01/05 03:39:02;;;;;;;4.28;2.95;;;8.30;99.90;;;;;;5093205;28;20193;-35
2021/01/05 03:41:33;;;;;;;3.60;3.08;;;8.40;99.90;;;;;;5088556;28;20293;-33
2021/01/05 03:44:03;;;;;;;5.25;3.55;;;8.40;99.90;;;;;;5089409;28;20585;-34
2021/01/05 03:46:34;;;;;;;3.15;2.58;;;8.40;99.90;;;;;;5104406;28;20664;-38
2021/01/05 03:49:05;;;;;;;4.38;2.88;;;8.40;99.90;;;;;;5111188;28;20218;-34
2021/01/05 03:51:35;;;;;;;3.47;2.95;;;8.30;99.90;;;;;;5103399;28;20192;-37
2021/01/05 03:54:06;;;;;;;6.78;2.92;;;8.30;99.90;;;;;;5110573;28;20637;-36
2021/01/05 03:56:36;;;;;;;4.63;3.45;;;8.30;99.90;;;;;;5100824;28;20344;-37
2021/01/05 03:59:06;;;;;;;4.18;2.78;;;8.30;99.90;;;;;;5107637;28;20206;-32
2021/01/05 04:01:37;;;;;;;6.40;3.45;;;8.30;99.90;;;;;;5112815;28;20253;-34
2021/01/05 04:04:07;;;;;;;4.75;2.58;;;8.30;99.90;;;;;;5100842;28;20216;-37
2021/01/05 04:06:37;;;;;;;4.72;2.60;;;8.30;99.90;;;;;;5100962;28;20203;-36
2021/01/05 04:09:07;;;;;;;8.07;4.07;;;8.30;99.90;;;;;;5103104;28;20683;-36
2021/01/05 04:11:37;;;;;;;8.38;4.43;;;8.30;99.90;;;;;;5101528;28;20706;-36
2021/01/05 04:14:07;;;;;;;3.40;3.10;;;8.30;99.90;;;;;;5103303;28;20249;-34
2021/01/05 04:16:39;;;;;;;4.65;3.60;;;8.30;99.90;;;;;;5103207;27;20204;-36
2021/01/05 04:19:09;;;;;;;3.05;2.65;;;8.30;99.90;;;;;;5097275;28;20218;-31
2021/01/05 04:21:39;;;;;;;5.45;2.42;;;8.30;99.90;;;;;;5105452;28;20302;-33
2021/01/05 04:24:09;;;;;;;2.72;2.08;;;8.30;99.90;;;;;;5097269;28;20220;-31
2021/01/05 04:26:39;;;;;;;5.03;2.35;;;8.20;99.90;;;;;;5106840;28;20219;-34
2021/01/05 04:29:09;;;;;;;3.50;2.45;;;8.30;99.90;;;;;;5103759;28;20577;-34
2021/01/05 04:31:41;;;;;;;4.68;2.30;;;8.30;99.90;;;;;;5095411;28;20199;-36
2021/01/05 04:34:14;;;;;;;4.80;2.40;;;8.30;99.90;;;;;;5094561;28;20633;-33
2021/01/05 04:36:44;;;;;;;4.07;2.15;;;8.30;99.90;;;;;;5103736;28;20711;-38
2021/01/05 04:39:14;;;;;;;4.38;2.22;;;8.30;99.90;;;;;;5098061;28;20197;-35
2021/01/05 04:41:50;;;;;;;3.95;1.88;;;8.30;99.90;;;;;;5092120;28;20246;-39
2021/01/05 04:44:22;;;;;;;2.15;1.70;;;8.30;99.90;;;;;;5099971;28;20215;-39
2021/01/05 04:47:00;;;;;;;4.25;1.80;;;8.30;99.90;;;;;;5094138;28;20256;-34
2021/01/05 04:50:06;;;;;;;5.50;2.50;;;8.30;99.90;;;;;;5091631;28;20201;-36
2021/01/05 04:52:47;;;;;;;2.95;1.52;;;8.30;99.90;;;;;;5092041;28;20211;-38
2021/01/05 04:55:36;;;;;;;2.47;1.63;;;8.20;99.90;;;;;;5090757;28;20302;-35
2021/01/05 04:58:11;;;;;;;2.15;1.90;;;8.30;99.90;;;;;;5087864;28;20246;-37
2021/01/05 05:00:41;;;;;;;3.08;2.00;;;8.30;99.90;;;;;;5090383;28;20301;-31
2021/01/05 05:03:28;;;;;;;4.32;1.85;;;8.30;99.90;;;;;;5090249;28;20246;-36
2021/01/05 05:06:19;;;;;;;4.88;1.80;;;8.30;99.90;;;;;;5091279;28;20611;-35
2021/01/05 05:09:06;;;;;;;1.75;1.42;;;8.30;99.90;;;;;;5091076;28;20192;-35
2021/01/05 05:11:46;;;;;;;5.28;1.60;;;8.30;99.90;;;;;;5096830;28;20195;-35
2021/01/05 05:14:24;;;;;;;2.83;1.85;;;8.30;99.90;;;;;;5105301;28;20192;-35
2021/01/05 05:17:07;;;;;;;3.53;1.60;;;8.20;99.90;;;;;;5115184;27;20183;-38
2021/01/05 05:19:53;;;;;;;1.80;1.70;;;8.20;99.90;;;;;;5111516;27;20184;-37
2021/01/05 05:22:33;;;;;;;8.75;2.20;;;8.20;99.90;;;;;;5109208;28;20199;-36
2021/01/05 05:25:12;;;;;;;5.32;1.95;;;8.20;99.90;;;;;;5090129;28;20241;-32
2021/01/05 05:27:47;;;;;;;6.05;2.17;;;8.10;99.90;;;;;;5090714;28;20185;-37
2021/01/05 05:30:26;;;;;;;3.28;1.23;;;8.10;99.90;;;;;;5089749;28;20211;-34
2021/01/05 05:32:58;;;;;;;2.90;2.13;;;8.10;99.90;;;;;;5092192;28;20184;-37
2021/01/05 05:36:04;;;;;;;2.00;1.60;;;8.10;99.90;;;;;;5090775;28;20338;-39
2021/01/05 05:38:51;;;;;;;2.22;1.58;;;8.10;99.90;;;;;;5101752;28;20200;-37
2021/01/05 05:41:35;;;;;;;2.67;1.42;;;8.00;99.90;;;;;;5093351;28;20232;-37
2021/01/05 05:44:24;;;;;;;5.18;2.00;;;8.00;99.90;;;;;;5089610;28;20216;-36
2021/01/05 05:47:03;;;;;;;4.93;1.38;;;8.00;99.90;;;;;;5090364;28;20219;-38
2021/01/05 05:49:41;;;;;;;2.92;1.48;;;7.90;99.90;;;;;;5101333;28;20283;-33
2021/01/05 05:52:25;;;;;;;2.65;1.33;;;7.90;99.90;;;;;;5099075;28;20192;-32
2021/01/05 05:54:57;;;;;;;3.63;1.52;;;7.90;99.90;;;;;;5089390;28;20185;-36
2021/01/05 05:57:44;;;;;;;2.85;1.15;;;7.80;99.90;;;;;;5089707;28;20192;-37
2021/01/05 06:00:37;;;;;;;2.50;1.08;;;7.90;99.90;;;;;;5102228;28;20243;-35
2021/01/05 06:03:12;;;;;;;3.58;1.35;;;7.90;99.90;;;;;;5092689;28;20292;-33
2021/01/05 06:05:42;;;;;;;2.20;1.00;;;7.90;99.90;;;;;;5095924;28;20192;-39
2021/01/05 06:08:18;;;;;;;5.47;1.50;;;7.90;99.90;;;;;;5098846;28;20256;-39
2021/01/05 06:10:48;;;;;;;1.23;0.90;;;7.90;99.90;;;;;;5097831;28;20192;-39
2021/01/05 06:13:18;;;;;;;2.05;1.27;;;7.90;99.90;;;;;;5100225;27;20196;-34
2021/01/05 06:15:48;;;;;;;3.13;1.50;;;8.00;99.90;;;;;;5104871;27;20258;-37
2021/01/05 06:18:21;;;;;;;8.02;1.80;;;7.90;99.90;;;;;;5111897;27;20188;-35
2021/01/05 06:20:51;;;;;;;1.88;1.52;;;8.00;99.90;;;;;;5097327;27;20188;-38
2021/01/05 06:23:22;;;;;;;1.30;1.20;;;8.00;99.90;;;;;;5103728;28;20579;-37
2021/01/05 06:25:52;;;;;;;2.90;1.33;;;8.00;99.90;;;;;;5105845;28;20219;-36
2021/01/05 06:28:23;;;;;;;5.05;1.50;;;8.00;99.90;;;;;;5108015;28;20188;-36
2021/01/05 06:30:57;;;;;;;1.90;0.90;;;8.00;99.90;;;;;;5109567;28;20564;-37
2021/01/05 06:33:28;;;;;;;2.67;1.20;;;8.00;99.90;;;;;;5102123;28;20215;-35
2021/01/05 06:35:58;;;;;;;2.92;1.00;;;8.00;99.90;;;;;;5090149;28;20336;-36
2021/01/05 06:38:29;;;;;;;4.72;1.40;;;8.00;99.90;;;;;;5099743;27;20195;-32
2021/01/05 06:40:59;;;;;;;1.85;1.23;;;8.00;99.90;;;;;;5103675;27;20603;-35
2021/01/05 06:43:32;;;;;;;2.92;0.98;;;8.10;99.90;;;;;;5104717;28;20683;-32
2021/01/05 06:46:02;;;;;;;3.38;1.17;;;8.10;99.90;;;;;;5089164;28;20196;-34
2021/01/05 06:48:32;;;;;;;1.50;1.20;;;8.20;99.90;;;;;;5099516;28;20203;-35
2021/01/05 06:51:03;;;;;;;2.78;1.50;;;8.20;99.90;;;;;;5109267;28;20200;-38
2021/01/05 06:53:34;;;;;;;2.53;1.30;;;8.20;99.90;;;;;;5100648;28;20201;-38
2021/01/05 06:56:04;;;;;;;2.55;1.23;;;8.20;99.90;;;;;;5092331;28;20652;-37
2021/01/05 06:58:34;;;;;;;2.20;1.00;;;8.20;99.90;;;;;;5093058;28;20674;-38
2021/01/05 07:01:04;;;;;;;1.60;0.95;;;8.20;99.90;;;;;;5101291;28;20295;-36
2021/01/05 07:03:34;;;;;;;2.88;1.15;;;8.20;99.90;;;;;;5093442;28;20579;-37
2021/01/05 07:06:05;;;;;;;2.92;1.20;;;8.10;99.90;;;;;;5102253;28;20223;-35
2021/01/05 07:08:36;;;;;;;1.60;1.10;;;8.10;99.90;;;;;;5093517;28;20200;-35
2021/01/05 07:11:06;;;;;;;1.55;1.15;;;8.10;99.90;;;;;;5101051;28;20296;-37
2021/01/05 07:13:36;;;;;;;2.47;0.80;;;8.10;99.90;;;;;;5102069;28;20210;-36
2021/01/05 07:16:07;;;;;;;1.48;1.10;;;8.30;99.90;;;;;;5104248;28;20703;-35
2021/01/05 07:18:37;;;;;;;1.63;1.00;;;8.30;99.90;;;;;;5106271;28;20188;-35
2021/01/05 07:21:07;;;;;;;1.73;0.88;;;8.30;99.90;;;;;;5093632;28;20204;-34
2021/01/05 07:23:38;;;;;;;2.13;1.02;;;8.30;99.90;;;;;;5103432;28;20237;-38
2021/01/05 07:26:08;;;;;;;7.80;1.20;;;8.30;99.90;;;;;;5111518;28;20219;-32
2021/01/05 07:28:41;;;;;;;1.10;0.85;;;8.30;99.90;;;;;;5102595;27;20195;-33
2021/01/05 07:31:22;;;;;;;1.95;1.55;;;8.30;99.90;;;;;;5112545;28;20227;-35
2021/01/05 07:33:52;;;;;;;5.00;1.27;;;8.20;99.90;;;;;;5110167;28;20207;-36
2021/01/05 07:36:26;;;;;;;2.47;1.33;;;8.20;99.90;;;;;;5109435;28;20245;-34
2021/01/05 07:38:57;;;;;;;3.88;1.02;;;8.20;99.90;;;;;;5100385;28;20203;-35
2021/01/05 07:41:27;;;;;;;3.30;1.13;;;8.30;99.90;;;;;;5112646;27;20236;-31
2021/01/05 07:43:57;;;;;;;2.10;1.00;;;8.30;99.90;;;;;;5097914;28;20216;-34
2021/01/05 07:46:27;;;;;;;2.00;1.20;;;8.30;99.90;;;;;;5107950;28;20201;-35
2021/01/05 07:48:57;;;;;;;3.45;1.10;;;8.30;99.90;;;;;;5101230;28;20256;-37
2021/01/05 07:51:27;;;;;;;1.85;0.93;;;8.30;99.90;;;;;;5112904;27;20204;-31
2021/01/05 07:53:59;;;;;;;2.53;1.35;;;8.40;99.90;;;;;;5102140;28;20200;-32
2021/01/05 07:56:29;;;;;;;1.95;1.30;;;8.30;99.90;;;;;;5105482;28;20238;-36
2021/01/05 07:58:59;;;;;;;2.22;1.02;;;8.30;99.90;;;;;;5092731;28;20201;-36
2021/01/05 08:01:32;;;;;;;1.63;1.25;;;8.30;99.90;;;;;;5103450;28;20574;-30
2021/01/05 08:04:02;;;;;;;1.75;1.00;;;8.40;99.90;;;;;;5096519;28;20216;-32
2021/01/05 08:06:32;;;;;;;2.22;1.17;;;8.40;99.90;;;;;;5092968;28;20208;-35
2021/01/05 08:09:03;;;;;;;3.50;1.35;;;8.40;99.90;;;;;;5092782;28;20197;-34
2021/01/05 08:11:38;;;;;;;2.90;1.23;;;8.40;99.90;;;;;;5104478;27;20238;-35
2021/01/05 08:14:08;;;;;;;5.65;1.45;;;8.40;99.90;;;;;;5095426;28;20196;-37
2021/01/05 08:16:38;;;;;;;2.58;1.20;;;8.40;99.90;;;;;;5109473;28;20198;-36
2021/01/05 08:19:08;;;;;;;2.72;1.40;;;8.30;99.90;;;;;;5094075;28;20200;-37
2021/01/05 08:21:38;;;;;;;3.28;1.42;;;8.30;99.90;;;;;;5107057;28;20193;-35
2021/01/05 08:24:12;;;;;;;4.50;1.45;;;8.30;99.90;;;;;;5106761;28;20251;-34
2021/01/05 08:26:45;;;;;;;1.60;1.05;;;8.20;99.90;;;;;;5096996;28;20220;-36
2021/01/05 08:29:15;;;;;;;2.75;1.02;;;8.30;99.90;;;;;;5093134;28;20201;-35
2021/01/05 08:31:48;;;;;;;1.50;1.20;;;8.30;99.90;;;;;;5095809;28;20257;-33
2021/01/05 08:34:18;;;;;;;3.15;1.50;;;8.30;99.90;;;;;;5104635;28;20607;-37
2021/01/05 08:36:48;;;;;;;2.78;1.30;;;8.20;99.90;;;;;;5111877;27;20199;-38
2021/01/05 08:39:21;;;;;;;2.42;1.00;;;8.20;99.90;;;;;;5091613;28;20200;-35
2021/01/05 08:41:54;;;;;;;1.25;0.90;;;8.20;99.90;;;;;;5091545;28;20273;-36
2021/01/05 08:44:25;;;;;;;3.35;1.40;;;8.20;99.90;;;;;;5107980;28;20559;-32
2021/01/05 08:47:00;;;;;;;1.67;1.10;;;8.20;99.90;;;;;;5105266;28;20682;-37
2021/01/05 08:49:31;;;;;;;2.10;1.15;;;8.10;99.90;;;;;;5099895;28;20257;-32
2021/01/05 08:52:02;;;;;;;4.20;3.10;;;8.10;99.90;;;;;;5100454;28;20192;-35
2021/01/05 08:54:33;;;;;;;3.15;0.90;;;8.00;99.90;;;;;;5099337;28;20612;-34
2021/01/05 08:57:04;;;;;;;3.75;1.10;;;8.00;99.90;;;;;;5102658;28;20227;-34
2021/01/05 08:59:34;;;;;;;4.75;1.40;;;8.00;99.90;;;;;;5097971;28;20208;-36
2021/01/05 09:02:04;;;;;;;2.35;0.90;;;8.00;99.90;;;;;;5097424;28;20227;-35
2021/01/05 09:04:35;;;;;;;3.40;1.30;;;8.00;99.90;;;;;;5096626;28;20228;-37
2021/01/05 09:07:05;;;;;;;4.13;0.75;;;8.00;99.90;;;;;;5097356;28;20196;-36
2021/01/05 09:09:36;;;;;;;2.35;0.93;;;8.00;99.90;;;;;;5096053;28;20257;-35
2021/01/05 09:12:07;;;;;;;4.25;1.20;;;7.90;99.90;;;;;;5097795;28;20196;-35
2021/01/05 09:14:37;;;;;;;2.90;1.42;;;7.90;99.90;;;;;;5106333;28;20327;-38
2021/01/05 09:17:07;;;;;;;2.92;1.20;;;7.80;99.90;;;;;;5092080;28;20208;-37
2021/01/05 09:19:40;;;;;;;4.28;1.10;;;7.70;99.90;;;;;;5109302;28;20283;-38
2021/01/05 09:22:10;;;;;;;4.63;1.27;;;7.80;99.90;;;;;;5093679;28;20197;-36
2021/01/05 09:24:41;;;;;;;7.63;1.33;;;7.70;99.90;;;;;;5095751;28;20699;-34
2021/01/05 09:27:11;;;;;;;1.98;1.20;;;7.70;99.90;;;;;;5090718;28;20540;-34
2021/01/05 09:29:41;;;;;;;3.33;1.10;;;7.70;99.90;;;;;;5102811;27;20200;-36
2021/01/05 09:32:12;;;;;;;5.25;1.60;;;7.60;99.90;;;;;;5106066;28;20197;-34
2021/01/05 09:34:42;;;;;;;2.22;1.10;;;7.60;99.90;;;;;;5097424;28;20207;-34
2021/01/05 09:37:12;;;;;;;2.75;1.05;;;7.60;99.90;;;;;;5090800;28;20250;-34
2021/01/05 09:39:43;;;;;;;3.67;1.30;;;7.60;99.90;;;;;;5097336;28;20595;-34
2021/01/05 09:42:13;;;;;;;2.75;1.40;;;7.60;99.90;;;;;;5098965;28;20362;-35
2021/01/05 09:44:43;;;;;;;4.20;1.38;;;7.70;99.90;;;;;;5098322;28;20276;-31
2021/01/05 09:47:18;;;;;;;2.33;1.00;;;7.70;99.90;;;;;;5101056;28;20266;-34
2021/01/05 09:49:48;;;;;;;2.25;2.05;;;7.70;99.90;;;;;;5099073;28;20195;-35
2021/01/05 09:52:19;;;;;;;2.25;1.00;;;7.80;99.90;;;;;;5092208;28;20205;-38
2021/01/05 09:54:50;;;;;;;3.22;1.20;;;7.80;99.90;;;;;;5104544;28;20299;-32
2021/01/05 09:57:21;;;;;;;3.70;1.65;;;7.80;99.90;;;;;;5108045;28;20200;-36
2021/01/05 09:59:50;;;;;;;3.95;1.88;;;7.80;99.90;;;;;;5110028;28;20249;-35
2021/01/05 10:02:21;;;;;;;1.45;1.08;;;7.80;99.90;;;;;;5110672;28;20203;-37
2021/01/05 10:04:51;;;;;;;1.67;1.52;;;7.90;99.90;;;;;;5103331;28;20219;-35
2021/01/05 10:07:21;;;;;;;4.25;1.50;;;7.90;99.90;;;;;;5102632;28;20203;-36
2021/01/05 10:09:52;;;;;;;3.22;1.10;;;7.90;99.90;;;;;;5110387;28;20200;-31
2021/01/05 10:12:22;;;;;;;3.03;0.90;;;7.90;99.90;;;;;;5110133;28;20200;-37
2021/01/05 10:14:52;;;;;;;3.53;1.30;;;7.90;99.90;;;;;;5109909;28;20203;-36
2021/01/05 10:17:22;;;;;;;4.38;1.60;;;7.90;99.90;;;;;;5101606;28;20268;-33
2021/01/05 10:19:52;;;;;;;2.10;1.23;;;7.80;99.90;;;;;;5109987;28;20232;-37
2021/01/05 10:22:23;;;;;;;3.20;1.20;;;7.80;99.90;;;;;;5108800;28;20206;-36
2021/01/05 10:24:54;;;;;;;1.77;0.85;;;7.80;99.90;;;;;;5109804;28;20280;-34
2021/01/05 10:27:24;;;;;;;1.30;0.80;;;7.80;99.90;;;;;;5109141;28;20688;-35
2021/01/05 10:29:55;;;;;;;4.50;1.35;;;7.80;99.90;;;;;;5101234;28;20254;-36
2021/01/05 10:32:25;;;;;;;2.33;0.98;;;7.80;99.90;;;;;;5106421;28;20211;-32
2021/01/05 10:34:55;;;;;;;3.35;1.02;;;7.80;99.90;;;;;;5089860;28;20207;-36
2021/01/05 10:37:25;;;;;;;2.55;1.00;;;7.80;99.90;;;;;;5092500;28;20260;-37
2021/01/05 10:40:09;;;;;;;5.75;1.65;;;7.80;99.90;;;;;;5096836;28;20212;-37
2021/01/05 10:42:42;;;;;;;1.60;1.10;;;7.80;99.90;;;;;;5094726;28;20337;-36
2021/01/05 10:45:14;;;;;;;1.98;0.98;;;7.90;99.90;;;;;;5095511;28;20213;-37
2021/01/05 10:47:47;;;;;;;3.10;1.30;;;7.90;99.90;;;;;;5093716;28;20191;-36
2021/01/05 10:50:21;;;;;;;4.18;1.00;;;7.90;99.90;;;;;;5108155;28;20254;-32
2021/01/05 10:52:52;;;;;;;2.50;1.05;;;7.90;99.90;;;;;;5094438;28;20249;-36
2021/01/05 10:55:24;;;;;;;2.15;1.35;;;7.80;99.90;;;;;;5092362;28;20252;-30
2021/01/05 10:57:54;;;;;;;2.13;1.20;;;7.80;99.90;;;;;;5097737;28;20184;-37
2021/01/05 11:00:25;;;;;;;2.10;1.17;;;7.80;99.90;;;;;;5099626;28;20189;-35
2021/01/05 11:02:55;;;;;;;4.10;0.85;;;7.90;99.90;;;;;;5108259;28;20217;-34
2021/01/05 11:05:25;;;;;;;6.80;1.40;;;7.90;99.90;;;;;;5110968;28;21997;-37
2021/01/05 11:07:55;;;;;;;2.03;0.93;;;8.00;99.90;;;;;;5099802;28;20188;-31
2021/01/05 11:10:26;;;;;;;3.00;0.90;;;8.10;99.90;;;;;;5093337;28;20234;-38
2021/01/05 11:12:58;;;;;;;5.20;1.40;;;8.20;99.90;;;;;;5093211;28;20192;-36
2021/01/05 11:15:28;;;;;;;3.58;1.25;;;8.20;99.90;;;;;;5092896;28;20201;-36
2021/01/05 11:17:58;;;;;;;2.20;0.90;;;8.20;99.90;;;;;;5099340;28;20708;-37
2021/01/05 11:20:28;;;;;;;2.95;0.95;;;8.20;99.90;;;;;;5103624;28;20196;-37
2021/01/05 11:22:58;;;;;;;3.90;1.08;;;8.30;99.90;;;;;;5101948;28;20308;-39
2021/01/05 11:25:29;;;;;;;2.05;0.80;;;8.30;99.90;;;;;;5097771;28;20235;-31
2021/01/05 11:27:59;;;;;;;6.70;3.17;;;8.30;99.90;;;;;;5102670;28;20717;-38
2021/01/05 11:30:29;;;;;;;2.33;0.82;;;8.30;99.90;;;;;;5096251;28;20682;-37
2021/01/05 11:32:59;;;;;;;1.85;1.00;;;8.20;99.90;;;;;;5098834;28;20197;-37
2021/01/05 11:35:29;;;;;;;2.47;1.25;;;8.30;99.90;;;;;;5100475;28;20209;-35
2021/01/05 11:37:59;;;;;;;3.13;1.30;;;8.30;99.90;;;;;;5108346;28;20578;-36
2021/01/05 11:40:30;;;;;;;2.42;1.02;;;8.30;99.90;;;;;;5113731;28;20250;-36
2021/01/05 11:43:01;;;;;;;2.95;1.35;;;8.30;99.90;;;;;;5113093;28;20192;-35
2021/01/05 11:45:30;;;;;;;3.78;1.30;;;8.20;99.90;;;;;;5109870;28;20219;-38
2021/01/05 11:48:00;;;;;;;4.30;1.10;;;8.20;99.90;;;;;;5103206;28;20200;-37
2021/01/05 11:50:30;;;;;;;2.22;1.00;;;8.30;99.90;;;;;;5112766;28;20203;-35
2021/01/05 11:53:00;;;;;;;1.30;0.80;;;8.30;99.90;;;;;;5113196;28;20566;-37
2021/01/05 11:55:32;;;;;;;4.07;0.95;;;8.40;99.90;;;;;;5102854;28;20245;-36
2021/01/05 11:58:02;;;;;;;4.78;1.60;;;8.40;99.90;;;;;;5095746;28;20304;-38
2021/01/05 12:00:32;;;;;;;1.55;1.00;;;8.30;99.90;;;;;;5111428;28;20192;-34
2021/01/05 12:03:02;;;;;;;1.75;1.02;;;8.40;99.90;;;;;;5112472;28;20199;-35
2021/01/05 12:05:32;;;;;;;1.73;1.08;;;8.30;99.90;;;;;;5105859;28;20228;-35
2021/01/05 12:08:02;;;;;;;1.88;0.90;;;8.30;99.90;;;;;;5114300;27;20252;-38
2021/01/05 12:10:33;;;;;;;1.88;1.00;;;8.20;99.90;;;;;;5097698;28;20539;-35
2021/01/05 12:13:03;;;;;;;4.13;1.50;;;8.30;99.90;;;;;;5108225;27;20192;-36
2021/01/05 12:15:33;;;;;;;3.70;1.20;;;8.30;99.90;;;;;;5095952;28;20216;-36
2021/01/05 12:18:03;;;;;;;2.15;1.00;;;8.40;99.90;;;;;;5100800;27;20197;-35
2021/01/05 12:20:33;;;;;;;1.95;0.90;;;8.40;99.90;;;;;;5110531;28;20200;-33
2021/01/05 12:23:03;;;;;;;3.65;1.10;;;8.40;99.90;;;;;;5115668;27;20191;-36
2021/01/05 12:25:35;;;;;;;4.05;1.20;;;8.30;99.90;;;;;;5100720;28;20240;-33
2021/01/05 12:28:05;;;;;;;2.90;0.90;;;8.30;99.90;;;;;;5098048;27;20196;-32
2021/01/05 12:30:42;;;;;;;1.73;1.05;;;8.30;99.90;;;;;;5094784;28;20225;-34
2021/01/05 12:33:12;;;;;;;5.13;1.15;;;8.30;99.90;;;;;;5103785;28;20196;-37
2021/01/05 12:35:45;;;;;;;5.65;2.38;;;8.30;99.90;;;;;;5115710;27;20191;-36
2021/01/05 12:38:15;;;;;;;3.80;0.90;;;8.20;99.90;;;;;;5095841;27;20195;-33
2021/01/05 12:40:51;;;;;;;1.90;1.13;;;8.20;99.90;;;;;;5109697;28;20242;-34
2021/01/05 12:43:21;;;;;;;3.03;1.55;;;8.10;99.90;;;;;;5099472;28;20218;-36
2021/01/05 12:45:51;;;;;;;1.65;0.82;;;8.10;99.90;;;;;;5097156;27;20224;-36
2021/01/05 12:48:21;;;;;;;3.13;1.15;;;8.10;99.90;;;;;;5107527;28;20651;-31
2021/01/05 12:50:51;;;;;;;3.42;1.20;;;8.10;99.90;;;;;;5101107;27;20610;-37
2021/01/05 12:53:21;;;;;;;5.07;1.35;;;8.10;99.90;;;;;;5091754;28;20208;-34
2021/01/05 12:55:53;;;;;;;3.05;1.10;;;8.10;99.90;;;;;;5106468;28;20204;-36
2021/01/05 12:58:23;;;;;;;4.88;2.05;;;8.10;99.90;;;;;;5113184;27;20246;-38
2021/01/05 13:00:53;;;;;;;5.28;1.25;;;8.00;99.90;;;;;;5120702;27;20191;-33
2021/01/05 13:03:23;;;;;;;2.53;0.95;;;7.90;99.90;;;;;;5112365;27;20498;-35
2021/01/05 13:05:53;;;;;;;2.58;1.33;;;7.90;99.90;;;;;;5102575;27;20373;-37
2021/01/05 13:08:24;;;;;;;3.70;0.95;;;7.80;99.90;;;;;;5095897;28;20204;-35
2021/01/05 13:10:55;;;;;;;2.53;1.02;;;7.70;99.90;;;;;;5099992;28;20196;-33
2021/01/05 13:13:25;;;;;;;3.05;1.23;;;7.70;99.90;;;;;;5106285;28;20207;-35
2021/01/05 13:15:55;;;;;;;2.67;1.10;;;7.60;99.90;;;;;;5126877;27;20563;-29
2021/01/05 13:18:25;;;;;;;3.05;0.98;;;7.50;99.90;;;;;;5095976;28;20299;-35
2021/01/05 13:20:56;;;;;;;2.67;0.98;;;7.40;99.90;;;;;;5099821;28;20300;-34
2021/01/05 13:23:26;;;;;;;6.53;1.73;;;7.30;99.90;;;;;;5098022;28;20201;-31
2021/01/05 13:25:58;;;;;;;2.20;1.02;;;7.30;99.90;;;;;;5094075;28;20238;-34
2021/01/05 13:28:30;;;;;;;2.85;1.05;;;7.30;99.90;;;;;;5104656;28;20513;-36